sensor_id;sensor_type;location;lat;lon;timestamp;P1;durP1;ratioP1;P2;durP2;ratioP2
8982;SDS011;20979;59.850;10.660;2023-06-22T00:04:49;12.30;;;11.10;;
8982;SDS011;20979;59.850;10.660;2023-06-22T00:07:16;11.27;;;10.37;;
8982;SDS011;20979;59.850;10.660;2023-06-22T00:09:44;11.80;;;10.60;;
8982;SDS011;20979;59.850;10.660;2023-06-22T00:12:12;10.73;;;9.80;;
8982;SDS011;20979;59.850;10.660;2023-06-22T00:14:39;11.67;;;10.70;;
8982;SDS011;20979;59.850;10.660;2023-06-22T00:17:24;11.37;;;10.37;;
8982;SDS011;20979;59.850;10.660;2023-06-22T00:29:41;11.37;;;10.37;;
8982;SDS011;20979;59.850;10.660;2023-06-22T00:40:31;10.00;;;9.20;;
8982;SDS011;20979;59.850;10.660;2023-06-22T00:47:59;9.30;;;8.50;;
8982;SDS011;20979;59.850;10.660;2023-06-22T00:50:28;8.20;;;7.60;;
8982;SDS011;20979;59.850;10.660;2023-06-22T00:53:00;8.27;;;7.57;;
8982;SDS011;20979;59.850;10.660;2023-06-22T01:35:27;6.67;;;6.10;;
8982;SDS011;20979;59.850;10.660;2023-06-22T01:47:11;7.03;;;6.53;;
8982;SDS011;20979;59.850;10.660;2023-06-22T01:49:57;4.00;;;3.70;;
8982;SDS011;20979;59.850;10.660;2023-06-22T01:52:27;3.80;;;3.50;;
8982;SDS011;20979;59.850;10.660;2023-06-22T01:55:14;3.90;;;3.60;;
8982;SDS011;20979;59.850;10.660;2023-06-22T01:58:07;4.07;;;3.77;;
8982;SDS011;20979;59.850;10.660;2023-06-22T02:00:44;3.70;;;3.40;;
8982;SDS011;20979;59.850;10.660;2023-06-22T02:03:35;3.90;;;3.60;;
8982;SDS011;20979;59.850;10.660;2023-06-22T02:08:57;3.90;;;3.60;;
8982;SDS011;20979;59.850;10.660;2023-06-22T02:12:05;4.13;;;3.60;;
8982;SDS011;20979;59.850;10.660;2023-06-22T02:14:47;4.20;;;3.40;;
8982;SDS011;20979;59.850;10.660;2023-06-22T02:17:16;3.33;;;2.97;;
8982;SDS011;20979;59.850;10.660;2023-06-22T02:19:46;3.40;;;3.10;;
8982;SDS011;20979;59.850;10.660;2023-06-22T02:22:16;3.13;;;2.93;;
8982;SDS011;20979;59.850;10.660;2023-06-22T02:24:48;2.77;;;2.53;;
8982;SDS011;20979;59.850;10.660;2023-06-22T02:28:37;2.93;;;2.60;;
8982;SDS011;20979;59.850;10.660;2023-06-22T02:30:25;3.27;;;2.80;;
8982;SDS011;20979;59.850;10.660;2023-06-22T02:32:56;3.17;;;2.87;;
8982;SDS011;20979;59.850;10.660;2023-06-22T02:35:25;2.90;;;2.70;;
8982;SDS011;20979;59.850;10.660;2023-06-22T02:38:02;2.70;;;2.50;;
8982;SDS011;20979;59.850;10.660;2023-06-22T02:40:39;3.07;;;2.77;;
8982;SDS011;20979;59.850;10.660;2023-06-22T02:43:07;3.23;;;3.03;;
8982;SDS011;20979;59.850;10.660;2023-06-22T02:48:47;2.80;;;2.60;;
8982;SDS011;20979;59.850;10.660;2023-06-22T02:51:30;2.67;;;2.30;;
8982;SDS011;20979;59.850;10.660;2023-06-22T03:03:40;3.10;;;2.90;;
8982;SDS011;20979;59.850;10.660;2023-06-22T03:06:36;3.17;;;2.87;;
8982;SDS011;20979;59.850;10.660;2023-06-22T03:09:32;2.53;;;2.40;;
8982;SDS011;20979;59.850;10.660;2023-06-22T03:15:23;2.73;;;2.50;;
8982;SDS011;20979;59.850;10.660;2023-06-22T03:17:53;2.90;;;2.60;;
8982;SDS011;20979;59.850;10.660;2023-06-22T03:26:21;3.30;;;2.50;;
8982;SDS011;20979;59.850;10.660;2023-06-22T03:29:23;2.20;;;2.10;;
8982;SDS011;20979;59.850;10.660;2023-06-22T03:31:51;2.43;;;2.27;;
8982;SDS011;20979;59.850;10.660;2023-06-22T03:46:30;3.40;;;2.30;;
8982;SDS011;20979;59.850;10.660;2023-06-22T03:48:58;4.03;;;2.47;;
8982;SDS011;20979;59.850;10.660;2023-06-22T03:51:25;2.30;;;2.10;;
8982;SDS011;20979;59.850;10.660;2023-06-22T03:53:53;2.47;;;2.10;;
8982;SDS011;20979;59.850;10.660;2023-06-22T03:56:21;1.90;;;1.80;;
8982;SDS011;20979;59.850;10.660;2023-06-22T04:01:44;2.73;;;2.00;;
8982;SDS011;20979;59.850;10.660;2023-06-22T04:04:13;2.33;;;1.97;;
8982;SDS011;20979;59.850;10.660;2023-06-22T04:06:44;2.50;;;2.30;;
8982;SDS011;20979;59.850;10.660;2023-06-22T04:09:17;2.50;;;2.10;;
8982;SDS011;20979;59.850;10.660;2023-06-22T04:11:45;3.10;;;1.90;;
8982;SDS011;20979;59.850;10.660;2023-06-22T04:17:01;1.97;;;1.87;;
8982;SDS011;20979;59.850;10.660;2023-06-22T04:22:53;2.00;;;1.70;;
8982;SDS011;20979;59.850;10.660;2023-06-22T04:25:21;1.90;;;1.80;;
8982;SDS011;20979;59.850;10.660;2023-06-22T04:27:58;1.90;;;1.80;;
8982;SDS011;20979;59.850;10.660;2023-06-22T04:30:39;1.97;;;1.80;;
8982;SDS011;20979;59.850;10.660;2023-06-22T04:33:13;2.50;;;2.00;;
8982;SDS011;20979;59.850;10.660;2023-06-22T04:35:41;2.77;;;1.90;;
8982;SDS011;20979;59.850;10.660;2023-06-22T04:38:09;1.93;;;1.73;;
8982;SDS011;20979;59.850;10.660;2023-06-22T04:40:38;2.00;;;1.90;;
8982;SDS011;20979;59.850;10.660;2023-06-22T04:43:10;1.70;;;1.60;;
8982;SDS011;20979;59.850;10.660;2023-06-22T04:45:38;2.00;;;1.80;;
8982;SDS011;20979;59.850;10.660;2023-06-22T04:51:03;1.60;;;1.50;;
8982;SDS011;20979;59.850;10.660;2023-06-22T04:53:31;1.80;;;1.70;;
8982;SDS011;20979;59.850;10.660;2023-06-22T04:56:09;1.70;;;1.60;;
8982;SDS011;20979;59.850;10.660;2023-06-22T04:58:39;1.87;;;1.70;;
8982;SDS011;20979;59.850;10.660;2023-06-22T05:01:07;1.80;;;1.70;;
8982;SDS011;20979;59.850;10.660;2023-06-22T05:03:36;2.33;;;1.90;;
8982;SDS011;20979;59.850;10.660;2023-06-22T05:06:11;1.73;;;1.57;;
8982;SDS011;20979;59.850;10.660;2023-06-22T05:08:42;1.70;;;1.60;;
8982;SDS011;20979;59.850;10.660;2023-06-22T05:11:47;2.00;;;1.70;;
8982;SDS011;20979;59.850;10.660;2023-06-22T05:17:01;1.83;;;1.50;;
8982;SDS011;20979;59.850;10.660;2023-06-22T05:19:38;2.83;;;1.70;;
8982;SDS011;20979;59.850;10.660;2023-06-22T05:22:21;1.80;;;1.70;;
8982;SDS011;20979;59.850;10.660;2023-06-22T05:24:48;1.70;;;1.60;;
8982;SDS011;20979;59.850;10.660;2023-06-22T05:27:16;1.73;;;1.60;;
8982;SDS011;20979;59.850;10.660;2023-06-22T05:29:43;1.47;;;1.37;;
8982;SDS011;20979;59.850;10.660;2023-06-22T05:32:11;1.67;;;1.57;;
8982;SDS011;20979;59.850;10.660;2023-06-22T05:34:48;1.60;;;1.43;;
8982;SDS011;20979;59.850;10.660;2023-06-22T05:37:16;1.40;;;1.30;;
8982;SDS011;20979;59.850;10.660;2023-06-22T05:40:16;2.20;;;1.50;;
8982;SDS011;20979;59.850;10.660;2023-06-22T05:42:43;2.33;;;1.60;;
8982;SDS011;20979;59.850;10.660;2023-06-22T05:45:11;1.70;;;1.60;;
8982;SDS011;20979;59.850;10.660;2023-06-22T05:47:48;1.60;;;1.50;;
8982;SDS011;20979;59.850;10.660;2023-06-22T05:50:21;2.30;;;1.73;;
8982;SDS011;20979;59.850;10.660;2023-06-22T05:53:02;2.17;;;1.40;;
8982;SDS011;20979;59.850;10.660;2023-06-22T05:55:38;1.80;;;1.70;;
8982;SDS011;20979;59.850;10.660;2023-06-22T05:58:08;2.13;;;1.80;;
8982;SDS011;20979;59.850;10.660;2023-06-22T06:00:36;2.60;;;1.70;;
8982;SDS011;20979;59.850;10.660;2023-06-22T06:03:04;1.80;;;1.70;;
8982;SDS011;20979;59.850;10.660;2023-06-22T06:05:35;1.80;;;1.70;;
8982;SDS011;20979;59.850;10.660;2023-06-22T06:08:03;1.80;;;1.70;;
8982;SDS011;20979;59.850;10.660;2023-06-22T06:17:00;2.50;;;1.60;;
8982;SDS011;20979;59.850;10.660;2023-06-22T06:19:28;1.70;;;1.60;;
8982;SDS011;20979;59.850;10.660;2023-06-22T06:22:09;2.40;;;1.40;;
8982;SDS011;20979;59.850;10.660;2023-06-22T06:24:39;2.72;;;1.75;;
8982;SDS011;20979;59.850;10.660;2023-06-22T06:27:13;1.95;;;1.70;;
8982;SDS011;20979;59.850;10.660;2023-06-22T06:29:43;2.42;;;1.65;;
8982;SDS011;20979;59.850;10.660;2023-06-22T06:32:15;1.48;;;1.38;;
8982;SDS011;20979;59.850;10.660;2023-06-22T06:34:46;1.70;;;1.60;;
8982;SDS011;20979;59.850;10.660;2023-06-22T06:39:58;2.47;;;1.50;;
8982;SDS011;20979;59.850;10.660;2023-06-22T06:42:26;1.33;;;1.30;;
8982;SDS011;20979;59.850;10.660;2023-06-22T06:44:53;1.55;;;1.45;;
8982;SDS011;20979;59.850;10.660;2023-06-22T06:47:36;1.90;;;1.70;;
8982;SDS011;20979;59.850;10.660;2023-06-22T06:50:05;1.63;;;1.42;;
8982;SDS011;20979;59.850;10.660;2023-06-22T06:52:32;1.73;;;1.60;;
8982;SDS011;20979;59.850;10.660;2023-06-22T06:55:00;1.75;;;1.60;;
8982;SDS011;20979;59.850;10.660;2023-06-22T07:00:38;1.58;;;1.48;;
8982;SDS011;20979;59.850;10.660;2023-06-22T07:03:47;1.50;;;1.40;;
8982;SDS011;20979;59.850;10.660;2023-06-22T07:06:35;1.77;;;1.67;;
8982;SDS011;20979;59.850;10.660;2023-06-22T07:09:16;1.60;;;1.50;;
8982;SDS011;20979;59.850;10.660;2023-06-22T07:11:44;2.63;;;1.70;;
8982;SDS011;20979;59.850;10.660;2023-06-22T07:14:26;2.08;;;1.50;;
8982;SDS011;20979;59.850;10.660;2023-06-22T07:20:20;1.67;;;1.58;;
8982;SDS011;20979;59.850;10.660;2023-06-22T07:23:10;1.88;;;1.40;;
8982;SDS011;20979;59.850;10.660;2023-06-22T07:26:10;1.70;;;1.60;;
8982;SDS011;20979;59.850;10.660;2023-06-22T07:31:53;2.33;;;1.40;;
8982;SDS011;20979;59.850;10.660;2023-06-22T07:40:44;1.80;;;1.70;;
8982;SDS011;20979;59.850;10.660;2023-06-22T07:43:20;2.15;;;1.48;;
8982;SDS011;20979;59.850;10.660;2023-06-22T07:46:02;1.50;;;1.40;;
8982;SDS011;20979;59.850;10.660;2023-06-22T07:48:42;1.73;;;1.60;;
8982;SDS011;20979;59.850;10.660;2023-06-22T07:54:33;1.80;;;1.40;;
8982;SDS011;20979;59.850;10.660;2023-06-22T08:06:41;1.40;;;1.30;;
8982;SDS011;20979;59.850;10.660;2023-06-22T08:15:13;1.00;;;1.00;;
8982;SDS011;20979;59.850;10.660;2023-06-22T08:20:58;1.27;;;1.27;;
8982;SDS011;20979;59.850;10.660;2023-06-22T08:23:27;1.48;;;1.38;;
8982;SDS011;20979;59.850;10.660;2023-06-22T08:26:01;1.08;;;1.08;;
8982;SDS011;20979;59.850;10.660;2023-06-22T08:28:32;1.38;;;1.27;;
8982;SDS011;20979;59.850;10.660;2023-06-22T08:40:28;1.25;;;1.15;;
8982;SDS011;20979;59.850;10.660;2023-06-22T08:42:56;1.20;;;1.20;;
8982;SDS011;20979;59.850;10.660;2023-06-22T08:45:23;1.85;;;1.40;;
8982;SDS011;20979;59.850;10.660;2023-06-22T08:47:51;2.88;;;1.10;;
8982;SDS011;20979;59.850;10.660;2023-06-22T08:50:32;1.25;;;1.20;;
8982;SDS011;20979;59.850;10.660;2023-06-22T08:53:00;1.00;;;1.00;;
8982;SDS011;20979;59.850;10.660;2023-06-22T08:55:32;1.20;;;1.10;;
8982;SDS011;20979;59.850;10.660;2023-06-22T08:57:59;0.80;;;0.80;;
8982;SDS011;20979;59.850;10.660;2023-06-22T09:03:33;1.08;;;0.98;;
8982;SDS011;20979;59.850;10.660;2023-06-22T09:06:02;1.10;;;1.10;;
8982;SDS011;20979;59.850;10.660;2023-06-22T09:09:01;1.73;;;1.30;;
8982;SDS011;20979;59.850;10.660;2023-06-22T09:11:44;1.20;;;1.10;;
8982;SDS011;20979;59.850;10.660;2023-06-22T09:14:14;1.38;;;1.27;;
8982;SDS011;20979;59.850;10.660;2023-06-22T09:16:42;1.17;;;1.02;;
8982;SDS011;20979;59.850;10.660;2023-06-22T09:19:15;1.10;;;1.00;;
8982;SDS011;20979;59.850;10.660;2023-06-22T09:21:46;1.05;;;0.95;;
8982;SDS011;20979;59.850;10.660;2023-06-22T09:24:27;1.50;;;1.17;;
8982;SDS011;20979;59.850;10.660;2023-06-22T09:26:56;1.10;;;1.00;;
8982;SDS011;20979;59.850;10.660;2023-06-22T09:29:26;1.75;;;1.10;;
8982;SDS011;20979;59.850;10.660;2023-06-22T09:35:09;1.30;;;1.20;;
8982;SDS011;20979;59.850;10.660;2023-06-22T09:37:38;1.33;;;1.23;;
8982;SDS011;20979;59.850;10.660;2023-06-22T09:40:06;0.90;;;0.90;;
8982;SDS011;20979;59.850;10.660;2023-06-22T09:45:33;1.00;;;1.00;;
8982;SDS011;20979;59.850;10.660;2023-06-22T09:50:54;0.95;;;0.93;;
8982;SDS011;20979;59.850;10.660;2023-06-22T09:53:22;0.90;;;0.90;;
8982;SDS011;20979;59.850;10.660;2023-06-22T09:55:49;0.70;;;0.70;;
8982;SDS011;20979;59.850;10.660;2023-06-22T09:58:19;4.45;;;1.25;;
8982;SDS011;20979;59.850;10.660;2023-06-22T10:00:48;1.38;;;0.82;;
8982;SDS011;20979;59.850;10.660;2023-06-22T10:03:15;0.80;;;0.80;;
8982;SDS011;20979;59.850;10.660;2023-06-22T10:05:43;1.00;;;0.90;;
8982;SDS011;20979;59.850;10.660;2023-06-22T10:08:10;1.00;;;1.00;;
8982;SDS011;20979;59.850;10.660;2023-06-22T10:10:38;1.08;;;1.00;;
8982;SDS011;20979;59.850;10.660;2023-06-22T10:13:07;0.85;;;0.85;;
8982;SDS011;20979;59.850;10.660;2023-06-22T10:15:35;0.80;;;0.80;;
8982;SDS011;20979;59.850;10.660;2023-06-22T10:18:04;2.75;;;0.80;;
8982;SDS011;20979;59.850;10.660;2023-06-22T10:20:32;1.10;;;0.93;;
8982;SDS011;20979;59.850;10.660;2023-06-22T10:22:59;1.15;;;1.13;;
8982;SDS011;20979;59.850;10.660;2023-06-22T10:25:33;1.48;;;0.90;;
8982;SDS011;20979;59.850;10.660;2023-06-22T10:28:03;1.02;;;1.00;;
8982;SDS011;20979;59.850;10.660;2023-06-22T10:30:30;0.88;;;0.88;;
8982;SDS011;20979;59.850;10.660;2023-06-22T10:33:01;0.73;;;0.73;;
8982;SDS011;20979;59.850;10.660;2023-06-22T10:35:29;0.80;;;0.75;;
8982;SDS011;20979;59.850;10.660;2023-06-22T10:37:57;1.23;;;0.82;;
8982;SDS011;20979;59.850;10.660;2023-06-22T10:40:25;0.80;;;0.80;;
8982;SDS011;20979;59.850;10.660;2023-06-22T10:42:55;0.80;;;0.80;;
8982;SDS011;20979;59.850;10.660;2023-06-22T10:45:23;1.10;;;0.73;;
8982;SDS011;20979;59.850;10.660;2023-06-22T10:47:50;0.85;;;0.82;;
8982;SDS011;20979;59.850;10.660;2023-06-22T10:50:18;1.20;;;0.70;;
8982;SDS011;20979;59.850;10.660;2023-06-22T10:52:53;0.88;;;0.88;;
8982;SDS011;20979;59.850;10.660;2023-06-22T10:55:54;1.05;;;0.85;;
8982;SDS011;20979;59.850;10.660;2023-06-22T10:58:21;0.77;;;0.77;;
8982;SDS011;20979;59.850;10.660;2023-06-22T11:01:03;2.08;;;0.77;;
8982;SDS011;20979;59.850;10.660;2023-06-22T11:03:31;0.85;;;0.85;;
8982;SDS011;20979;59.850;10.660;2023-06-22T11:05:58;0.80;;;0.80;;
8982;SDS011;20979;59.850;10.660;2023-06-22T11:14:46;0.85;;;0.85;;
8982;SDS011;20979;59.850;10.660;2023-06-22T11:20:34;0.80;;;0.80;;
8982;SDS011;20979;59.850;10.660;2023-06-22T11:23:43;0.73;;;0.73;;
8982;SDS011;20979;59.850;10.660;2023-06-22T11:26:11;0.88;;;0.80;;
8982;SDS011;20979;59.850;10.660;2023-06-22T11:28:38;0.90;;;0.90;;
8982;SDS011;20979;59.850;10.660;2023-06-22T11:31:07;1.30;;;1.20;;
8982;SDS011;20979;59.850;10.660;2023-06-22T11:33:34;0.80;;;0.80;;
8982;SDS011;20979;59.850;10.660;2023-06-22T11:36:02;0.88;;;0.88;;
8982;SDS011;20979;59.850;10.660;2023-06-22T11:38:29;0.77;;;0.77;;
8982;SDS011;20979;59.850;10.660;2023-06-22T11:40:57;0.98;;;0.93;;
8982;SDS011;20979;59.850;10.660;2023-06-22T11:43:25;0.70;;;0.70;;
8982;SDS011;20979;59.850;10.660;2023-06-22T11:45:53;1.15;;;0.65;;
8982;SDS011;20979;59.850;10.660;2023-06-22T11:51:33;0.60;;;0.57;;
8982;SDS011;20979;59.850;10.660;2023-06-22T11:54:03;0.57;;;0.50;;
8982;SDS011;20979;59.850;10.660;2023-06-22T11:56:30;2.47;;;0.70;;
8982;SDS011;20979;59.850;10.660;2023-06-22T11:58:58;1.42;;;0.60;;
8982;SDS011;20979;59.850;10.660;2023-06-22T12:01:27;1.50;;;0.90;;
8982;SDS011;20979;59.850;10.660;2023-06-22T12:03:55;0.90;;;0.90;;
8982;SDS011;20979;59.850;10.660;2023-06-22T12:06:26;1.27;;;0.73;;
8982;SDS011;20979;59.850;10.660;2023-06-22T12:11:55;0.88;;;0.70;;
8982;SDS011;20979;59.850;10.660;2023-06-22T12:14:35;0.75;;;0.75;;
8982;SDS011;20979;59.850;10.660;2023-06-22T12:17:03;0.93;;;0.93;;
8982;SDS011;20979;59.850;10.660;2023-06-22T12:19:31;0.80;;;0.80;;
8982;SDS011;20979;59.850;10.660;2023-06-22T12:21:59;0.90;;;0.90;;
8982;SDS011;20979;59.850;10.660;2023-06-22T12:24:26;3.58;;;0.90;;
8982;SDS011;20979;59.850;10.660;2023-06-22T12:26:55;0.75;;;0.75;;
8982;SDS011;20979;59.850;10.660;2023-06-22T12:29:23;1.27;;;0.90;;
8982;SDS011;20979;59.850;10.660;2023-06-22T12:31:51;1.25;;;1.02;;
8982;SDS011;20979;59.850;10.660;2023-06-22T12:34:18;0.90;;;0.90;;
8982;SDS011;20979;59.850;10.660;2023-06-22T12:36:46;0.82;;;0.82;;
8982;SDS011;20979;59.850;10.660;2023-06-22T12:39:13;2.40;;;1.30;;
8982;SDS011;20979;59.850;10.660;2023-06-22T12:41:50;1.40;;;1.20;;
8982;SDS011;20979;59.850;10.660;2023-06-22T12:44:18;1.30;;;1.20;;
8982;SDS011;20979;59.850;10.660;2023-06-22T12:46:46;0.85;;;0.85;;
8982;SDS011;20979;59.850;10.660;2023-06-22T12:49:13;1.05;;;1.00;;
8982;SDS011;20979;59.850;10.660;2023-06-22T12:51:44;1.27;;;1.20;;
8982;SDS011;20979;59.850;10.660;2023-06-22T12:54:11;1.00;;;1.00;;
8982;SDS011;20979;59.850;10.660;2023-06-22T12:56:41;1.25;;;1.00;;
8982;SDS011;20979;59.850;10.660;2023-06-22T12:59:09;1.08;;;1.00;;
8982;SDS011;20979;59.850;10.660;2023-06-22T13:01:37;1.10;;;1.10;;
8982;SDS011;20979;59.850;10.660;2023-06-22T13:07:27;1.40;;;1.30;;
8982;SDS011;20979;59.850;10.660;2023-06-22T13:09:57;1.40;;;1.30;;
8982;SDS011;20979;59.850;10.660;2023-06-22T13:12:28;1.80;;;1.70;;
8982;SDS011;20979;59.850;10.660;2023-06-22T13:14:55;1.67;;;1.55;;
8982;SDS011;20979;59.850;10.660;2023-06-22T13:20:34;1.60;;;1.50;;
8982;SDS011;20979;59.850;10.660;2023-06-22T13:23:03;1.60;;;1.50;;
8982;SDS011;20979;59.850;10.660;2023-06-22T13:28:34;2.03;;;1.80;;
8982;SDS011;20979;59.850;10.660;2023-06-22T13:31:01;2.20;;;2.00;;
8982;SDS011;20979;59.850;10.660;2023-06-22T13:33:50;1.80;;;1.70;;
8982;SDS011;20979;59.850;10.660;2023-06-22T13:36:20;1.83;;;1.73;;
8982;SDS011;20979;59.850;10.660;2023-06-22T13:41:50;1.80;;;1.70;;
8982;SDS011;20979;59.850;10.660;2023-06-22T13:44:18;1.83;;;1.73;;
8982;SDS011;20979;59.850;10.660;2023-06-22T13:46:47;1.67;;;1.58;;
8982;SDS011;20979;59.850;10.660;2023-06-22T13:49:14;1.98;;;1.88;;
8982;SDS011;20979;59.850;10.660;2023-06-22T13:51:43;1.85;;;1.75;;
8982;SDS011;20979;59.850;10.660;2023-06-22T13:54:25;2.00;;;1.90;;
8982;SDS011;20979;59.850;10.660;2023-06-22T13:57:02;2.00;;;1.90;;
8982;SDS011;20979;59.850;10.660;2023-06-22T13:59:49;2.20;;;2.00;;
8982;SDS011;20979;59.850;10.660;2023-06-22T14:02:17;2.53;;;2.20;;
8982;SDS011;20979;59.850;10.660;2023-06-22T14:05:06;2.30;;;2.10;;
8982;SDS011;20979;59.850;10.660;2023-06-22T14:13:30;2.50;;;2.22;;
8982;SDS011;20979;59.850;10.660;2023-06-22T14:15:58;2.40;;;2.20;;
8982;SDS011;20979;59.850;10.660;2023-06-22T14:18:36;2.97;;;2.03;;
8982;SDS011;20979;59.850;10.660;2023-06-22T14:21:21;2.00;;;1.90;;
8982;SDS011;20979;59.850;10.660;2023-06-22T14:23:48;2.78;;;2.13;;
8982;SDS011;20979;59.850;10.660;2023-06-22T14:26:38;2.40;;;2.30;;
8982;SDS011;20979;59.850;10.660;2023-06-22T14:29:09;2.75;;;2.10;;
8982;SDS011;20979;59.850;10.660;2023-06-22T14:31:51;2.70;;;2.50;;
8982;SDS011;20979;59.850;10.660;2023-06-22T14:34:20;2.70;;;2.50;;
8982;SDS011;20979;59.850;10.660;2023-06-22T14:36:48;2.70;;;2.50;;
8982;SDS011;20979;59.850;10.660;2023-06-22T14:42:30;2.33;;;2.13;;
8982;SDS011;20979;59.850;10.660;2023-06-22T14:44:59;2.50;;;2.00;;
8982;SDS011;20979;59.850;10.660;2023-06-22T14:47:34;3.10;;;2.30;;
8982;SDS011;20979;59.850;10.660;2023-06-22T14:56:33;2.40;;;2.17;;
8982;SDS011;20979;59.850;10.660;2023-06-22T15:02:05;2.10;;;2.00;;
8982;SDS011;20979;59.850;10.660;2023-06-22T15:04:32;2.25;;;2.10;;
8982;SDS011;20979;59.850;10.660;2023-06-22T15:07:14;2.50;;;2.22;;
8982;SDS011;20979;59.850;10.660;2023-06-22T15:09:42;2.28;;;2.10;;
8982;SDS011;20979;59.850;10.660;2023-06-22T15:12:12;2.58;;;2.10;;
8982;SDS011;20979;59.850;10.660;2023-06-22T15:15:12;2.22;;;2.03;;
8982;SDS011;20979;59.850;10.660;2023-06-22T15:21:09;3.58;;;2.47;;
8982;SDS011;20979;59.850;10.660;2023-06-22T15:26:52;2.92;;;2.20;;
8982;SDS011;20979;59.850;10.660;2023-06-22T15:29:31;2.40;;;2.20;;
8982;SDS011;20979;59.850;10.660;2023-06-22T15:35:05;2.20;;;2.10;;
8982;SDS011;20979;59.850;10.660;2023-06-22T15:37:34;2.08;;;1.98;;
8982;SDS011;20979;59.850;10.660;2023-06-22T15:40:09;3.92;;;2.30;;
8982;SDS011;20979;59.850;10.660;2023-06-22T15:45:42;2.30;;;2.10;;
8982;SDS011;20979;59.850;10.660;2023-06-22T15:57:59;2.30;;;2.10;;
8982;SDS011;20979;59.850;10.660;2023-06-22T16:00:49;2.60;;;2.40;;
8982;SDS011;20979;59.850;10.660;2023-06-22T16:03:30;2.83;;;2.40;;
8982;SDS011;20979;59.850;10.660;2023-06-22T16:05:58;2.50;;;2.30;;
8982;SDS011;20979;59.850;10.660;2023-06-22T16:08:25;2.20;;;2.10;;
8982;SDS011;20979;59.850;10.660;2023-06-22T16:10:55;2.90;;;2.40;;
8982;SDS011;20979;59.850;10.660;2023-06-22T16:13:24;2.85;;;2.28;;
8982;SDS011;20979;59.850;10.660;2023-06-22T16:15:52;2.35;;;2.00;;
8982;SDS011;20979;59.850;10.660;2023-06-22T16:18:33;2.63;;;2.40;;
8982;SDS011;20979;59.850;10.660;2023-06-22T16:21:00;2.40;;;2.13;;
8982;SDS011;20979;59.850;10.660;2023-06-22T16:23:29;2.47;;;2.28;;
8982;SDS011;20979;59.850;10.660;2023-06-22T16:25:56;2.40;;;2.20;;
8982;SDS011;20979;59.850;10.660;2023-06-22T16:34:25;3.47;;;2.10;;
8982;SDS011;20979;59.850;10.660;2023-06-22T16:36:53;2.40;;;2.20;;
8982;SDS011;20979;59.850;10.660;2023-06-22T16:39:20;4.75;;;2.40;;
8982;SDS011;20979;59.850;10.660;2023-06-22T16:41:48;2.45;;;2.25;;
8982;SDS011;20979;59.850;10.660;2023-06-22T16:44:19;2.53;;;2.33;;
8982;SDS011;20979;59.850;10.660;2023-06-22T16:46:46;3.58;;;2.22;;
8982;SDS011;20979;59.850;10.660;2023-06-22T16:49:14;2.28;;;2.08;;
8982;SDS011;20979;59.850;10.660;2023-06-22T16:51:43;3.67;;;2.28;;
8982;SDS011;20979;59.850;10.660;2023-06-22T16:54:10;2.42;;;2.22;;
8982;SDS011;20979;59.850;10.660;2023-06-22T16:56:38;2.60;;;2.20;;
8982;SDS011;20979;59.850;10.660;2023-06-22T16:59:06;2.33;;;2.00;;
8982;SDS011;20979;59.850;10.660;2023-06-22T17:01:34;2.50;;;2.30;;
8982;SDS011;20979;59.850;10.660;2023-06-22T17:06:48;2.60;;;2.40;;
8982;SDS011;20979;59.850;10.660;2023-06-22T17:09:19;5.82;;;2.17;;
8982;SDS011;20979;59.850;10.660;2023-06-22T17:11:50;3.60;;;2.00;;
8982;SDS011;20979;59.850;10.660;2023-06-22T17:14:23;2.20;;;2.00;;
8982;SDS011;20979;59.850;10.660;2023-06-22T17:16:55;2.58;;;2.30;;
8982;SDS011;20979;59.850;10.660;2023-06-22T17:19:23;2.85;;;2.50;;
8982;SDS011;20979;59.850;10.660;2023-06-22T17:22:01;2.10;;;2.00;;
8982;SDS011;20979;59.850;10.660;2023-06-22T17:24:31;2.95;;;2.30;;
8982;SDS011;20979;59.850;10.660;2023-06-22T17:27:08;2.33;;;2.13;;
8982;SDS011;20979;59.850;10.660;2023-06-22T17:29:49;1.88;;;1.77;;
8982;SDS011;20979;59.850;10.660;2023-06-22T17:32:29;1.92;;;1.83;;
8982;SDS011;20979;59.850;10.660;2023-06-22T17:34:57;3.30;;;2.30;;
8982;SDS011;20979;59.850;10.660;2023-06-22T17:37:46;2.55;;;2.10;;
8982;SDS011;20979;59.850;10.660;2023-06-22T17:40:15;2.90;;;2.08;;
8982;SDS011;20979;59.850;10.660;2023-06-22T17:42:47;2.70;;;2.20;;
8982;SDS011;20979;59.850;10.660;2023-06-22T17:45:15;2.97;;;2.08;;
8982;SDS011;20979;59.850;10.660;2023-06-22T17:47:45;2.10;;;1.80;;
8982;SDS011;20979;59.850;10.660;2023-06-22T17:50:13;2.40;;;2.20;;
8982;SDS011;20979;59.850;10.660;2023-06-22T17:52:42;2.20;;;2.00;;
8982;SDS011;20979;59.850;10.660;2023-06-22T17:55:45;3.50;;;2.15;;
8982;SDS011;20979;59.850;10.660;2023-06-22T18:00:59;2.00;;;1.90;;
8982;SDS011;20979;59.850;10.660;2023-06-22T18:03:26;2.08;;;1.90;;
8982;SDS011;20979;59.850;10.660;2023-06-22T18:05:54;2.28;;;1.90;;
8982;SDS011;20979;59.850;10.660;2023-06-22T18:08:24;2.72;;;1.80;;
8982;SDS011;20979;59.850;10.660;2023-06-22T18:10:56;3.00;;;2.05;;
8982;SDS011;20979;59.850;10.660;2023-06-22T18:13:24;3.10;;;2.00;;
8982;SDS011;20979;59.850;10.660;2023-06-22T18:16:05;2.67;;;1.98;;
8982;SDS011;20979;59.850;10.660;2023-06-22T18:18:35;2.22;;;2.03;;
8982;SDS011;20979;59.850;10.660;2023-06-22T18:21:03;2.08;;;1.85;;
8982;SDS011;20979;59.850;10.660;2023-06-22T18:23:35;2.83;;;2.10;;
8982;SDS011;20979;59.850;10.660;2023-06-22T18:26:03;1.80;;;1.70;;
8982;SDS011;20979;59.850;10.660;2023-06-22T18:28:38;2.17;;;1.98;;
8982;SDS011;20979;59.850;10.660;2023-06-22T18:31:13;3.05;;;1.98;;
8982;SDS011;20979;59.850;10.660;2023-06-22T18:33:42;2.20;;;2.00;;
8982;SDS011;20979;59.850;10.660;2023-06-22T18:36:09;3.53;;;2.10;;
8982;SDS011;20979;59.850;10.660;2023-06-22T18:38:43;2.10;;;1.90;;
8982;SDS011;20979;59.850;10.660;2023-06-22T18:41:20;2.10;;;1.90;;
8982;SDS011;20979;59.850;10.660;2023-06-22T18:43:48;1.92;;;1.80;;
8982;SDS011;20979;59.850;10.660;2023-06-22T18:46:29;2.33;;;2.00;;
8982;SDS011;20979;59.850;10.660;2023-06-22T18:48:58;2.17;;;1.98;;
8982;SDS011;20979;59.850;10.660;2023-06-22T18:51:26;2.20;;;2.00;;
8982;SDS011;20979;59.850;10.660;2023-06-22T18:54:04;2.58;;;2.00;;
8982;SDS011;20979;59.850;10.660;2023-06-22T18:56:51;2.90;;;1.85;;
8982;SDS011;20979;59.850;10.660;2023-06-22T18:59:26;2.70;;;1.80;;
8982;SDS011;20979;59.850;10.660;2023-06-22T19:02:09;2.38;;;2.17;;
8982;SDS011;20979;59.850;10.660;2023-06-22T19:04:37;2.22;;;2.08;;
8982;SDS011;20979;59.850;10.660;2023-06-22T19:07:04;2.20;;;1.90;;
8982;SDS011;20979;59.850;10.660;2023-06-22T19:09:34;2.65;;;2.10;;
8982;SDS011;20979;59.850;10.660;2023-06-22T19:15:02;3.03;;;1.90;;
8982;SDS011;20979;59.850;10.660;2023-06-22T19:17:29;1.83;;;1.73;;
8982;SDS011;20979;59.850;10.660;2023-06-22T19:20:03;2.05;;;1.90;;
8982;SDS011;20979;59.850;10.660;2023-06-22T19:22:44;2.40;;;2.20;;
8982;SDS011;20979;59.850;10.660;2023-06-22T19:25:20;1.92;;;1.80;;
8982;SDS011;20979;59.850;10.660;2023-06-22T19:27:48;3.33;;;1.98;;
8982;SDS011;20979;59.850;10.660;2023-06-22T19:30:17;7.70;;;2.30;;
8982;SDS011;20979;59.850;10.660;2023-06-22T19:32:45;2.25;;;2.08;;
8982;SDS011;20979;59.850;10.660;2023-06-22T19:35:13;2.17;;;2.00;;
8982;SDS011;20979;59.850;10.660;2023-06-22T19:37:44;2.20;;;2.00;;
8982;SDS011;20979;59.850;10.660;2023-06-22T19:40:27;2.28;;;2.08;;
8982;SDS011;20979;59.850;10.660;2023-06-22T19:42:54;1.92;;;1.83;;
8982;SDS011;20979;59.850;10.660;2023-06-22T19:45:22;2.03;;;1.80;;
8982;SDS011;20979;59.850;10.660;2023-06-22T19:47:52;1.83;;;1.73;;
8982;SDS011;20979;59.850;10.660;2023-06-22T19:50:22;2.13;;;1.90;;
8982;SDS011;20979;59.850;10.660;2023-06-22T19:52:50;1.70;;;1.60;;
8982;SDS011;20979;59.850;10.660;2023-06-22T19:55:39;6.25;;;2.08;;
8982;SDS011;20979;59.850;10.660;2023-06-22T19:58:08;2.10;;;1.90;;
8982;SDS011;20979;59.850;10.660;2023-06-22T20:00:35;2.38;;;1.77;;